createdAt,value
2018-07-19T00:00:11.357Z,18.68
2018-07-19T00:02:40.532Z,18.44
2018-07-19T00:05:09.713Z,18.23
2018-07-19T00:07:38.855Z,18.09
2018-07-19T00:10:08.012Z,18.10
2018-07-19T00:12:37.165Z,18.10
2018-07-19T00:15:06.616Z,18.05
2018-07-19T00:17:36.103Z,18.03
2018-07-19T00:20:05.924Z,18.01
2018-07-19T00:22:35.078Z,17.97
2018-07-19T00:25:04.282Z,18.01
2018-07-19T00:27:33.433Z,17.99
2018-07-19T00:30:02.604Z,17.96
2018-07-19T00:32:31.519Z,17.93
2018-07-19T00:35:00.675Z,17.83
2018-07-19T00:37:29.816Z,17.74
2018-07-19T00:39:58.992Z,17.70
2018-07-19T00:42:28.148Z,17.59
2018-07-19T00:44:57.291Z,17.61
2018-07-19T00:47:26.571Z,17.63
2018-07-19T00:49:55.503Z,17.59
2018-07-19T00:52:24.649Z,17.57
2018-07-19T00:54:53.809Z,17.49
2018-07-19T00:57:22.982Z,17.42
2018-07-19T00:59:52.147Z,17.41
2018-07-19T01:02:21.075Z,17.35
2018-07-19T01:04:50.207Z,17.43
2018-07-19T01:07:19.397Z,17.35
2018-07-19T01:09:48.583Z,17.39
2018-07-19T01:12:17.791Z,17.37
2018-07-19T01:14:46.969Z,17.33
2018-07-19T01:17:16.148Z,17.35
2018-07-19T01:19:45.328Z,17.32
2018-07-19T01:22:14.512Z,17.25
2018-07-19T01:24:43.682Z,17.22
2018-07-19T01:27:12.862Z,17.31
2018-07-19T01:29:42.037Z,17.20
2018-07-19T01:32:11.357Z,17.13
2018-07-19T01:34:40.537Z,17.22
2018-07-19T01:37:09.724Z,17.15
2018-07-19T01:39:38.908Z,17.15
2018-07-19T01:42:29.734Z,17.20
2018-07-19T01:44:58.935Z,17.18
2018-07-19T01:47:28.303Z,17.09
2018-07-19T01:49:57.615Z,17.06
2018-07-19T01:52:26.795Z,17.11
2018-07-19T01:54:55.997Z,17.14
2018-07-19T01:57:24.952Z,17.10
2018-07-19T01:59:54.143Z,17.06
2018-07-19T02:02:23.320Z,17.02
2018-07-19T02:04:52.519Z,16.98
2018-07-19T02:07:21.675Z,16.94
2018-07-19T02:09:50.836Z,16.91
2018-07-19T02:12:19.991Z,16.89
2018-07-19T02:14:49.151Z,16.92
2018-07-19T02:17:18.296Z,16.91
2018-07-19T02:19:47.447Z,16.82
2018-07-19T02:22:16.604Z,16.81
2018-07-19T02:24:45.764Z,16.79
2018-07-19T02:27:14.909Z,16.74
2018-07-19T02:29:44.078Z,16.66
2018-07-19T02:32:13.266Z,16.67
2018-07-19T02:34:42.431Z,16.68
2018-07-19T02:37:11.587Z,16.66
2018-07-19T02:39:40.725Z,16.59
2018-07-19T02:42:09.879Z,16.60
2018-07-19T02:44:39.023Z,16.60
2018-07-19T02:47:07.956Z,16.54
2018-07-19T02:49:37.110Z,16.40
2018-07-19T02:52:06.239Z,16.28
2018-07-19T02:54:35.397Z,16.18
2018-07-19T02:57:04.559Z,16.06
2018-07-19T02:59:33.703Z,16.05
2018-07-19T03:02:02.946Z,16.08
2018-07-19T03:04:32.074Z,16.07
2018-07-19T03:07:01.271Z,15.88
2018-07-19T03:09:30.430Z,15.93
2018-07-19T03:11:59.591Z,15.84
2018-07-19T03:14:28.723Z,15.79
2018-07-19T03:16:57.864Z,15.77
2018-07-19T03:19:27.003Z,15.85
2018-07-19T03:21:56.180Z,15.88
2018-07-19T03:24:25.337Z,15.88
2018-07-19T03:26:54.487Z,15.82
2018-07-19T03:29:23.649Z,15.85
2018-07-19T03:31:52.813Z,15.82
2018-07-19T03:34:21.957Z,15.81
2018-07-19T03:36:51.104Z,15.88
2018-07-19T03:39:20.257Z,15.81
2018-07-19T03:41:49.400Z,15.83
2018-07-19T03:44:18.555Z,15.80
2018-07-19T03:46:47.703Z,15.85
2018-07-19T03:49:16.865Z,15.68
2018-07-19T03:51:46.029Z,15.70
2018-07-19T03:54:15.181Z,15.72
2018-07-19T03:56:44.326Z,15.59
2018-07-19T03:59:13.488Z,15.66
2018-07-19T04:01:42.640Z,15.75
2018-07-19T04:04:11.812Z,15.84
2018-07-19T04:06:40.968Z,15.85
2018-07-19T04:09:10.159Z,15.87
2018-07-19T04:11:39.339Z,15.91
2018-07-19T04:14:14.808Z,15.92
2018-07-19T04:16:43.999Z,15.97
2018-07-19T04:19:13.176Z,16.01
2018-07-19T04:21:42.349Z,16.01
2018-07-19T04:24:11.551Z,16.09
2018-07-19T04:26:40.736Z,16.11
2018-07-19T04:29:09.920Z,16.09
2018-07-19T04:31:38.883Z,16.17
2018-07-19T04:34:08.062Z,16.09
2018-07-19T04:36:37.245Z,16.12
2018-07-19T04:39:08.667Z,16.20
2018-07-19T04:41:37.627Z,16.20
2018-07-19T04:44:06.821Z,16.21
2018-07-19T04:46:36.177Z,16.18
2018-07-19T04:49:05.558Z,16.19
2018-07-19T04:51:34.505Z,16.13
2018-07-19T04:54:03.689Z,16.18
2018-07-19T04:56:32.881Z,16.16
2018-07-19T04:59:02.052Z,16.28
2018-07-19T05:01:31.249Z,16.38
2018-07-19T05:04:00.428Z,16.45
2018-07-19T05:06:29.621Z,16.56
2018-07-19T05:08:58.799Z,16.52
2018-07-19T05:11:27.993Z,16.61
2018-07-19T05:13:57.202Z,16.69
2018-07-19T05:16:26.364Z,16.78
2018-07-19T05:18:55.547Z,16.92
2018-07-19T05:21:24.749Z,16.90
2018-07-19T05:23:53.933Z,16.94
2018-07-19T05:26:23.120Z,16.98
2018-07-19T05:28:52.309Z,17.06
2018-07-19T05:31:21.488Z,17.04
2018-07-19T05:33:50.688Z,17.15
2018-07-19T05:36:19.867Z,17.17
2018-07-19T05:38:49.034Z,17.19
2018-07-19T05:41:18.225Z,17.35
2018-07-19T05:43:47.418Z,17.47
2018-07-19T05:46:16.946Z,17.34
2018-07-19T05:48:46.127Z,17.25
2018-07-19T05:51:15.312Z,17.38
2018-07-19T05:53:44.496Z,17.46
2018-07-19T05:56:13.673Z,17.67
2018-07-19T05:58:42.852Z,17.91
2018-07-19T06:01:12.037Z,17.89
2018-07-19T06:03:41.240Z,17.88
2018-07-19T06:06:10.436Z,18.01
2018-07-19T06:08:39.599Z,18.11
2018-07-19T06:11:08.881Z,18.08
2018-07-19T06:13:38.064Z,18.20
2018-07-19T06:16:07.037Z,18.33
2018-07-19T06:18:36.502Z,18.35
2018-07-19T06:21:05.683Z,18.47
2018-07-19T06:23:34.881Z,18.43
2018-07-19T06:26:04.123Z,18.59
2018-07-19T06:28:33.354Z,18.85
2018-07-19T06:31:02.549Z,18.85
2018-07-19T06:33:31.507Z,18.94
2018-07-19T06:36:00.705Z,18.88
2018-07-19T06:38:29.889Z,19.06
2018-07-19T06:40:59.099Z,19.12
2018-07-19T06:43:28.273Z,19.13
2018-07-19T06:45:57.475Z,19.46
2018-07-19T06:48:26.695Z,19.39
2018-07-19T06:50:55.848Z,19.55
2018-07-19T06:53:25.033Z,19.55
2018-07-19T06:55:54.232Z,19.74
2018-07-19T06:58:23.416Z,20.01
2018-07-19T07:00:52.612Z,20.12
2018-07-19T07:03:21.569Z,20.01
2018-07-19T07:05:50.761Z,20.12
2018-07-19T07:08:19.958Z,20.28
2018-07-19T07:10:49.141Z,20.30
2018-07-19T07:13:18.319Z,20.04
2018-07-19T07:15:47.538Z,20.19
2018-07-19T07:18:16.736Z,20.33
2018-07-19T07:20:47.857Z,20.47
2018-07-19T07:23:17.275Z,20.58
2018-07-19T07:25:53.722Z,20.85
2018-07-19T07:28:24.169Z,20.92
2018-07-19T07:30:53.355Z,21.17
2018-07-19T07:33:22.580Z,21.16
2018-07-19T07:35:51.834Z,21.19
2018-07-19T07:38:20.986Z,21.10
2018-07-19T07:40:50.171Z,21.13
2018-07-19T07:43:19.370Z,20.94
2018-07-19T07:45:48.552Z,21.26
2018-07-19T07:48:17.746Z,21.65
2018-07-19T07:50:46.926Z,21.48
2018-07-19T07:53:16.131Z,21.62
2018-07-19T07:55:45.309Z,21.44
2018-07-19T07:58:14.500Z,21.48
2018-07-19T08:00:43.695Z,21.49
2018-07-19T08:03:12.662Z,21.53
2018-07-19T08:05:41.841Z,21.82
2018-07-19T08:08:11.018Z,22.01
2018-07-19T08:10:40.171Z,22.07
2018-07-19T08:13:09.328Z,22.13
2018-07-19T08:15:38.493Z,22.21
2018-07-19T08:18:07.735Z,22.09
2018-07-19T08:20:36.906Z,22.03
2018-07-19T08:23:06.276Z,22.24
2018-07-19T08:25:35.456Z,22.21
2018-07-19T08:28:04.638Z,22.50
2018-07-19T08:30:33.898Z,22.61
2018-07-19T08:33:03.052Z,22.82
2018-07-19T08:35:32.207Z,23.08
2018-07-19T08:38:01.365Z,22.62
2018-07-19T08:40:30.525Z,23.11
2018-07-19T08:42:59.687Z,23.25
2018-07-19T08:45:28.847Z,22.88
2018-07-19T08:47:58.003Z,23.03
2018-07-19T08:50:27.150Z,23.26
2018-07-19T08:52:56.341Z,23.76
2018-07-19T08:55:25.864Z,23.93
2018-07-19T08:57:55.233Z,23.58
2018-07-19T09:00:24.466Z,23.21
2018-07-19T09:02:53.629Z,23.19
2018-07-19T09:05:22.831Z,23.41
2018-07-19T09:07:51.998Z,23.68
2018-07-19T09:10:21.168Z,23.29
2018-07-19T09:12:50.329Z,23.36
2018-07-19T09:15:19.296Z,23.83
2018-07-19T09:17:48.453Z,23.94
2018-07-19T09:20:17.609Z,24.13
2018-07-19T09:22:46.619Z,23.84
2018-07-19T09:25:15.724Z,24.26
2018-07-19T09:27:44.882Z,24.06
2018-07-19T09:30:14.132Z,23.53
2018-07-19T09:32:43.336Z,23.72
2018-07-19T09:35:12.469Z,24.15
2018-07-19T09:37:41.640Z,23.96
2018-07-19T09:40:10.809Z,23.83
2018-07-19T09:42:39.978Z,24.27
2018-07-19T09:45:09.143Z,24.21
2018-07-19T09:47:38.308Z,24.12
2018-07-19T09:50:07.483Z,24.04
2018-07-19T09:52:36.655Z,24.09
2018-07-19T09:55:05.839Z,24.09
2018-07-19T09:57:35.038Z,24.38
2018-07-19T10:00:04.198Z,24.69
2018-07-19T10:02:33.356Z,24.63
2018-07-19T10:05:02.530Z,24.32
2018-07-19T10:07:31.734Z,24.85
2018-07-19T10:10:00.995Z,24.82
2018-07-19T10:12:30.141Z,24.40
2018-07-19T10:14:59.329Z,24.90
2018-07-19T10:17:28.568Z,24.86
2018-07-19T10:19:57.728Z,25.00
2018-07-19T10:22:26.934Z,25.09
2018-07-19T10:24:55.904Z,24.95
2018-07-19T10:27:25.085Z,25.36
2018-07-19T10:29:54.297Z,25.28
2018-07-19T10:32:23.605Z,25.16
2018-07-19T10:34:52.703Z,24.69
2018-07-19T10:37:21.894Z,25.09
2018-07-19T10:39:51.078Z,24.93
2018-07-19T10:42:20.277Z,24.86
2018-07-19T10:44:49.477Z,25.62
2018-07-19T10:47:18.671Z,26.26
2018-07-19T10:49:47.867Z,26.05
2018-07-19T10:52:17.050Z,25.52
2018-07-19T10:54:46.829Z,25.71
2018-07-19T10:57:16.005Z,25.72
2018-07-19T10:59:45.532Z,26.68
2018-07-19T11:02:14.711Z,26.22
2018-07-19T11:04:43.671Z,25.15
2018-07-19T11:07:12.847Z,25.92
2018-07-19T11:09:42.096Z,25.94
2018-07-19T11:12:11.197Z,26.31
2018-07-19T11:14:40.358Z,26.81
2018-07-19T11:17:09.525Z,27.88
2018-07-19T11:19:38.693Z,26.82
2018-07-19T11:22:07.627Z,27.01
2018-07-19T11:24:36.781Z,27.64
2018-07-19T11:27:05.987Z,27.09
2018-07-19T11:29:35.135Z,27.63
2018-07-19T11:32:04.294Z,28.18
2018-07-19T11:34:33.444Z,27.11
2018-07-19T11:37:02.612Z,26.15
2018-07-19T11:39:31.756Z,27.38
2018-07-19T11:42:00.930Z,27.29
2018-07-19T11:44:30.074Z,28.64
2018-07-19T11:46:59.219Z,28.94
2018-07-19T11:49:28.389Z,28.86
2018-07-19T11:51:57.550Z,29.68
2018-07-19T11:54:26.700Z,29.40
2018-07-19T11:56:55.893Z,27.06
2018-07-19T11:59:25.046Z,27.46
2018-07-19T12:01:54.236Z,27.56
2018-07-19T12:04:23.396Z,29.19
2018-07-19T12:06:52.575Z,29.19
2018-07-19T12:09:21.763Z,29.14
2018-07-19T12:11:50.944Z,29.58
2018-07-19T12:14:20.119Z,29.13
2018-07-19T12:16:49.287Z,29.45
2018-07-19T12:19:18.477Z,31.09
2018-07-19T12:21:47.656Z,30.11
2018-07-19T12:24:16.857Z,29.33
2018-07-19T12:26:46.050Z,29.35
2018-07-19T12:29:15.218Z,29.85
2018-07-19T12:31:44.408Z,29.51
2018-07-19T12:34:13.597Z,29.32
2018-07-19T12:36:42.764Z,29.53
2018-07-19T12:39:12.708Z,29.58
2018-07-19T12:41:42.348Z,30.51
2018-07-19T12:44:11.530Z,30.37
2018-07-19T12:46:40.703Z,30.84
2018-07-19T12:49:09.659Z,31.11
2018-07-19T12:51:38.846Z,30.76
2018-07-19T12:54:08.037Z,30.85
2018-07-19T12:56:37.199Z,31.21
2018-07-19T12:59:06.377Z,30.73
2018-07-19T13:01:35.357Z,29.77
2018-07-19T13:04:04.562Z,28.90
2018-07-19T13:06:33.733Z,29.05
2018-07-19T13:09:02.888Z,30.27
2018-07-19T13:11:32.040Z,30.78
2018-07-19T13:14:01.203Z,31.94
2018-07-19T13:16:30.348Z,32.01
2018-07-19T13:18:59.496Z,31.63
2018-07-19T13:21:28.639Z,31.58
2018-07-19T13:23:57.775Z,30.42
2018-07-19T13:26:33.251Z,30.09
2018-07-19T13:29:02.385Z,30.08
2018-07-19T13:31:31.325Z,31.20
2018-07-19T13:34:00.483Z,31.15
2018-07-19T13:36:29.696Z,31.92
2018-07-19T13:38:59.182Z,31.46
2018-07-19T13:41:28.128Z,31.54
2018-07-19T13:43:57.297Z,32.05
2018-07-19T13:46:26.479Z,30.17
2018-07-19T13:48:55.629Z,30.54
2018-07-19T13:51:24.789Z,28.90
2018-07-19T13:54:47.721Z,30.70
2018-07-19T13:57:17.120Z,32.64
2018-07-19T13:59:46.272Z,30.91
2018-07-19T14:02:15.437Z,32.63
2018-07-19T14:04:44.589Z,31.64
2018-07-19T14:07:13.769Z,30.34
2018-07-19T14:09:42.924Z,30.99
2018-07-19T14:12:12.068Z,30.38
2018-07-19T14:14:41.222Z,31.66
2018-07-19T14:17:10.376Z,31.43
2018-07-19T14:19:39.536Z,31.69
2018-07-19T14:22:08.679Z,30.98
2018-07-19T14:24:37.821Z,30.99
2018-07-19T14:27:06.989Z,31.07
2018-07-19T14:29:36.138Z,30.53
2018-07-19T14:32:05.298Z,31.51
2018-07-19T14:34:34.440Z,30.70
2018-07-19T14:37:03.592Z,31.70
2018-07-19T14:39:32.740Z,31.51
2018-07-19T14:42:01.924Z,31.52
2018-07-19T14:44:31.037Z,31.56
2018-07-19T14:47:00.174Z,31.50
2018-07-19T14:49:29.333Z,31.98
2018-07-19T14:51:58.267Z,32.98
2018-07-19T14:54:27.439Z,32.78
2018-07-19T14:56:56.580Z,33.61
2018-07-19T14:59:25.749Z,33.37
2018-07-19T15:01:54.913Z,32.65
2018-07-19T15:04:23.865Z,31.73
2018-07-19T15:06:52.999Z,32.37
2018-07-19T15:09:21.949Z,31.29
2018-07-19T15:11:51.125Z,32.04
2018-07-19T15:14:20.389Z,33.27
2018-07-19T15:16:49.328Z,32.12
2018-07-19T15:19:18.485Z,32.20
2018-07-19T15:21:47.445Z,32.85
2018-07-19T15:24:16.625Z,32.44
2018-07-19T15:26:45.822Z,32.83
2018-07-19T15:29:14.989Z,31.02
2018-07-19T15:31:44.178Z,31.34
2018-07-19T15:34:13.336Z,32.19
2018-07-19T15:36:43.341Z,31.55
2018-07-19T15:39:12.507Z,32.47
2018-07-19T15:41:41.685Z,32.65
2018-07-19T15:44:10.869Z,31.39
2018-07-19T15:46:39.821Z,31.78
2018-07-19T15:49:09.003Z,31.94
2018-07-19T15:51:38.356Z,31.80
2018-07-19T15:54:07.546Z,32.67
2018-07-19T15:56:36.715Z,31.93
2018-07-19T15:59:05.877Z,31.42
2018-07-19T16:01:35.074Z,32.28
2018-07-19T16:04:04.225Z,32.37
2018-07-19T16:06:33.426Z,31.93
2018-07-19T16:09:04.109Z,32.48
2018-07-19T16:11:33.276Z,31.93
2018-07-19T16:14:02.418Z,31.60
2018-07-19T16:16:31.570Z,31.76
2018-07-19T16:19:00.524Z,32.71
2018-07-19T16:21:29.740Z,31.91
2018-07-19T16:23:58.887Z,31.44
2018-07-19T16:26:28.035Z,31.98
2018-07-19T16:28:57.196Z,31.55
2018-07-19T16:31:26.330Z,31.85
2018-07-19T16:33:55.515Z,31.99
2018-07-19T16:36:24.620Z,32.45
2018-07-19T16:38:53.778Z,32.63
2018-07-19T16:41:22.925Z,32.18
2018-07-19T16:43:52.069Z,31.98
2018-07-19T16:46:21.234Z,32.33
2018-07-19T16:48:50.350Z,31.26
2018-07-19T16:51:19.489Z,31.68
2018-07-19T16:53:48.641Z,32.20
2018-07-19T16:56:17.808Z,31.21
2018-07-19T16:58:46.948Z,32.36
2018-07-19T17:01:16.105Z,32.17
2018-07-19T17:03:45.296Z,32.02
2018-07-19T17:06:14.474Z,31.41
2018-07-19T17:08:43.633Z,31.36
2018-07-19T17:11:12.805Z,31.30
2018-07-19T17:13:41.954Z,32.12
2018-07-19T17:16:11.105Z,31.79
2018-07-19T17:18:40.260Z,31.53
2018-07-19T17:21:09.417Z,31.49
2018-07-19T17:23:38.559Z,31.15
2018-07-19T17:26:07.487Z,31.97
2018-07-19T17:28:36.636Z,31.51
2018-07-19T17:31:05.794Z,30.86
2018-07-19T17:33:34.923Z,31.01
2018-07-19T17:36:04.070Z,31.18
2018-07-19T17:38:33.212Z,31.41
2018-07-19T17:41:02.382Z,30.51
2018-07-19T17:43:31.539Z,30.64
2018-07-19T17:46:00.685Z,30.70
2018-07-19T17:48:29.842Z,30.69
2018-07-19T17:50:58.986Z,30.90
2018-07-19T17:53:28.141Z,30.14
2018-07-19T17:55:57.281Z,29.76
2018-07-19T17:58:26.452Z,28.67
2018-07-19T18:00:55.655Z,28.14
2018-07-19T18:03:24.806Z,27.40
2018-07-19T18:05:53.948Z,27.06
2018-07-19T18:08:23.157Z,26.63
2018-07-19T18:10:52.352Z,26.34
2018-07-19T18:13:21.533Z,26.12
2018-07-19T18:15:50.699Z,26.00
2018-07-19T18:18:19.883Z,25.96
2018-07-19T18:20:49.185Z,25.77
2018-07-19T18:23:18.140Z,25.67
2018-07-19T18:25:47.323Z,25.48
2018-07-19T18:28:16.503Z,25.35
2018-07-19T18:30:45.695Z,25.27
2018-07-19T18:33:14.871Z,25.10
2018-07-19T18:35:44.058Z,24.90
2018-07-19T18:38:13.281Z,24.79
2018-07-19T18:40:42.457Z,24.70
2018-07-19T18:43:11.637Z,24.55
2018-07-19T18:45:40.808Z,24.59
2018-07-19T18:48:09.990Z,24.61
2018-07-19T18:50:39.187Z,24.52
2018-07-19T18:53:08.366Z,24.30
2018-07-19T18:55:37.552Z,24.15
2018-07-19T18:58:07.277Z,23.98
2018-07-19T19:00:36.492Z,23.86
2018-07-19T19:03:06.069Z,23.64
2018-07-19T19:05:35.383Z,23.62
2018-07-19T19:08:04.771Z,23.54
2018-07-19T19:10:33.916Z,23.49
2018-07-19T19:13:03.103Z,23.50
2018-07-19T19:15:32.254Z,23.49
2018-07-19T19:18:01.420Z,23.44
2018-07-19T19:20:30.345Z,23.36
2018-07-19T19:22:59.480Z,23.30
2018-07-19T19:25:28.633Z,23.14
2018-07-19T19:27:57.779Z,22.84
2018-07-19T19:30:27.049Z,22.67
2018-07-19T19:32:56.241Z,22.62
2018-07-19T19:35:25.387Z,22.58
2018-07-19T19:37:54.542Z,22.50
2018-07-19T19:40:23.747Z,22.38
2018-07-19T19:42:52.876Z,22.27
2018-07-19T19:45:22.035Z,22.17
2018-07-19T19:47:51.164Z,22.05
2018-07-19T19:50:20.339Z,21.97
2018-07-19T19:52:49.477Z,21.89
2018-07-19T19:55:18.640Z,21.84
2018-07-19T19:57:47.779Z,21.82
2018-07-19T20:00:16.696Z,21.75
2018-07-19T20:02:45.866Z,21.59
2018-07-19T20:05:15.033Z,21.52
2018-07-19T20:07:44.188Z,21.39
2018-07-19T20:10:13.365Z,21.41
2018-07-19T20:12:42.513Z,21.46
2018-07-19T20:15:11.676Z,21.33
2018-07-19T20:17:40.820Z,21.21
2018-07-19T20:20:10.355Z,21.16
2018-07-19T20:22:39.284Z,21.11
2018-07-19T20:25:08.508Z,21.02
2018-07-19T20:27:37.651Z,20.95
2018-07-19T20:30:06.818Z,20.90
2018-07-19T20:32:35.959Z,20.82
2018-07-19T20:35:05.200Z,20.73
2018-07-19T20:37:34.367Z,20.74
2018-07-19T20:40:03.510Z,20.65
2018-07-19T20:42:32.663Z,20.67
2018-07-19T20:45:01.804Z,20.62
2018-07-19T20:47:30.951Z,20.60
2018-07-19T20:50:00.088Z,20.52
2018-07-19T20:52:29.248Z,20.46
2018-07-19T20:54:58.466Z,20.36
2018-07-19T20:57:27.554Z,20.32
2018-07-19T20:59:56.808Z,20.31
2018-07-19T21:02:25.976Z,20.26
2018-07-19T21:04:55.113Z,20.26
2018-07-19T21:07:24.273Z,20.25
2018-07-19T21:09:53.460Z,20.23
2018-07-19T21:12:22.625Z,20.23
2018-07-19T21:14:51.754Z,20.30
2018-07-19T21:17:20.912Z,20.35
2018-07-19T21:19:50.068Z,20.39
2018-07-19T21:22:18.995Z,20.35
2018-07-19T21:24:48.145Z,20.20
2018-07-19T21:27:17.284Z,20.08
2018-07-19T21:29:46.443Z,19.96
2018-07-19T21:32:15.368Z,19.85
2018-07-19T21:34:44.516Z,19.81
2018-07-19T21:37:13.657Z,19.82
2018-07-19T21:39:42.823Z,19.94
2018-07-19T21:42:11.979Z,20.02
2018-07-19T21:44:41.160Z,19.97
2018-07-19T21:47:10.328Z,19.95
2018-07-19T21:49:39.484Z,19.86
2018-07-19T21:52:08.641Z,19.86
2018-07-19T21:54:37.800Z,19.79
2018-07-19T21:57:06.963Z,19.70
2018-07-19T21:59:36.124Z,19.72
2018-07-19T22:02:05.281Z,19.65
2018-07-19T22:04:34.444Z,19.58
2018-07-19T22:07:03.590Z,19.57
2018-07-19T22:09:32.787Z,19.49
2018-07-19T22:12:01.970Z,19.49
2018-07-19T22:14:31.150Z,19.39
2018-07-19T22:17:00.372Z,19.40
2018-07-19T22:19:29.526Z,19.36
2018-07-19T22:21:58.728Z,19.37
2018-07-19T22:24:27.893Z,19.31
2018-07-19T22:26:57.093Z,19.18
2018-07-19T22:29:26.268Z,19.17
2018-07-19T22:31:55.225Z,19.20
2018-07-19T22:34:24.408Z,19.23
2018-07-19T22:36:53.577Z,19.07
2018-07-19T22:39:22.764Z,18.93
2018-07-19T22:41:51.964Z,18.92
2018-07-19T22:44:21.167Z,18.89
2018-07-19T22:46:50.358Z,18.86
2018-07-19T22:49:19.299Z,18.76
2018-07-19T22:51:48.481Z,18.67
2018-07-19T22:54:17.661Z,18.77
2018-07-19T22:56:46.852Z,18.77
2018-07-19T22:59:16.020Z,18.77
2018-07-19T23:01:45.063Z,18.84
2018-07-19T23:04:14.242Z,18.76
2018-07-19T23:06:43.412Z,18.75
2018-07-19T23:09:12.341Z,18.83
2018-07-19T23:11:41.500Z,18.91
2018-07-19T23:14:10.416Z,19.08
2018-07-19T23:16:39.553Z,19.21
2018-07-19T23:19:08.700Z,19.22
2018-07-19T23:21:37.846Z,19.30
2018-07-19T23:24:07.000Z,19.42
2018-07-19T23:26:36.148Z,19.42
2018-07-19T23:29:05.439Z,19.38
2018-07-19T23:31:34.621Z,19.31
2018-07-19T23:34:03.769Z,19.34
2018-07-19T23:36:36.480Z,19.45
2018-07-19T23:39:17.176Z,19.51
2018-07-19T23:42:23.175Z,19.50
2018-07-19T23:45:58.271Z,19.41
2018-07-19T23:48:27.399Z,19.30
2018-07-19T23:50:56.543Z,19.29
2018-07-19T23:53:26.127Z,19.25
2018-07-19T23:55:55.292Z,19.20
2018-07-19T23:58:24.436Z,19.16
